Open Full Screen Window  High Contrast Mode
Wind Gusting 16 knots
09
May 24, 2015 3:06 PM EDT
Weather Information
Wind Direction
  220 °
Wind Speed
  09 kt (10 mph)
Wind Gust
  16 kt (18 mph)
Variable Wind
160°
230°
Altimeter
30.21 in
Visibility
10 SM
Temperature
28° C
82° F
Dewpoint
06° C
43° F
Humidity
25%
1hr Rain Fall
00.00 in.
24hr Rain Fall
00.00 in.
Sky Condition
Clear
VFR

METAR KI69 241906Z AUTO 22009G16KT 166V236 10SM CLR 28/06 A3021 RMK AO1

*Background is not an actual portrayal of the airport.